sensor_id;sensor_type;location;lat;lon;timestamp;pressure;altitude;pressure_sealevel;temperature;humidity
3206;BME280;1615;53.602;11.418;2023-07-29T00:00:25;100244.28;;;20.10;100.00
3206;BME280;1615;53.602;11.418;2023-07-29T00:02:51;100336.16;;;20.74;100.00
3206;BME280;1615;53.602;11.418;2023-07-29T00:05:17;100070.00;;;19.19;100.00
3206;BME280;1615;53.602;11.418;2023-07-29T00:07:42;100324.19;;;20.70;100.00
3206;BME280;1615;53.602;11.418;2023-07-29T00:10:07;100323.56;;;20.80;100.00
3206;BME280;1615;53.602;11.418;2023-07-29T00:12:33;100312.25;;;20.73;100.00
3206;BME280;1615;53.602;11.418;2023-07-29T00:14:58;100295.75;;;20.61;100.00
3206;BME280;1615;53.602;11.418;2023-07-29T00:17:23;100292.84;;;20.54;100.00
3206;BME280;1615;53.602;11.418;2023-07-29T00:19:49;100330.59;;;20.74;100.00
3206;BME280;1615;53.602;11.418;2023-07-29T00:22:14;100320.94;;;20.68;100.00
3206;BME280;1615;53.602;11.418;2023-07-29T00:24:40;100051.97;;;19.09;100.00
3206;BME280;1615;53.602;11.418;2023-07-29T00:27:05;100120.56;;;19.43;100.00
3206;BME280;1615;53.602;11.418;2023-07-29T00:29:30;100223.47;;;20.04;100.00
3206;BME280;1615;53.602;11.418;2023-07-29T00:31:56;100317.59;;;20.59;100.00
3206;BME280;1615;53.602;11.418;2023-07-29T00:34:21;100329.59;;;20.63;100.00
3206;BME280;1615;53.602;11.418;2023-07-29T00:36:46;100280.19;;;20.37;100.00
3206;BME280;1615;53.602;11.418;2023-07-29T00:39:11;100257.16;;;20.18;100.00
3206;BME280;1615;53.602;11.418;2023-07-29T00:41:37;100326.19;;;20.73;100.00
3206;BME280;1615;53.602;11.418;2023-07-29T00:44:02;100322.22;;;20.74;100.00
3206;BME280;1615;53.602;11.418;2023-07-29T00:46:28;100159.25;;;19.71;100.00
3206;BME280;1615;53.602;11.418;2023-07-29T00:48:56;100222.63;;;20.00;100.00
3206;BME280;1615;53.602;11.418;2023-07-29T00:51:22;100300.94;;;20.62;100.00
3206;BME280;1615;53.602;11.418;2023-07-29T00:53:47;100069.53;;;19.32;100.00
3206;BME280;1615;53.602;11.418;2023-07-29T00:56:13;100304.88;;;20.84;100.00
3206;BME280;1615;53.602;11.418;2023-07-29T00:58:38;100198.97;;;20.32;100.00
3206;BME280;1615;53.602;11.418;2023-07-29T01:01:03;100251.59;;;20.63;100.00
3206;BME280;1615;53.602;11.418;2023-07-29T01:03:28;100260.47;;;20.68;100.00
3206;BME280;1615;53.602;11.418;2023-07-29T01:06:06;100283.06;;;20.86;100.00
3206;BME280;1615;53.602;11.418;2023-07-29T01:08:40;100258.16;;;20.74;100.00
3206;BME280;1615;53.602;11.418;2023-07-29T01:11:22;100268.25;;;20.82;100.00
3206;BME280;1615;53.602;11.418;2023-07-29T01:14:05;100339.66;;;20.90;100.00
3206;BME280;1615;53.602;11.418;2023-07-29T01:16:46;100254.22;;;20.75;100.00
3206;BME280;1615;53.602;11.418;2023-07-29T01:19:23;100249.38;;;20.72;100.00
3206;BME280;1615;53.602;11.418;2023-07-29T01:21:54;100256.69;;;20.80;100.00
3206;BME280;1615;53.602;11.418;2023-07-29T01:24:20;100278.47;;;20.97;100.00
3206;BME280;1615;53.602;11.418;2023-07-29T01:26:45;100058.84;;;19.57;100.00
3206;BME280;1615;53.602;11.418;2023-07-29T01:29:10;100274.09;;;20.96;100.00
3206;BME280;1615;53.602;11.418;2023-07-29T01:31:43;100129.75;;;20.08;100.00
3206;BME280;1615;53.602;11.418;2023-07-29T01:34:32;100271.31;;;20.96;100.00
3206;BME280;1615;53.602;11.418;2023-07-29T01:37:02;100280.81;;;20.95;100.00
3206;BME280;1615;53.602;11.418;2023-07-29T01:39:32;100277.25;;;20.94;100.00
3206;BME280;1615;53.602;11.418;2023-07-29T01:41:59;100164.75;;;20.09;100.00
3206;BME280;1615;53.602;11.418;2023-07-29T01:44:25;100261.44;;;20.79;100.00
3206;BME280;1615;53.602;11.418;2023-07-29T01:46:51;100275.06;;;20.84;100.00
3206;BME280;1615;53.602;11.418;2023-07-29T01:49:16;100210.94;;;20.36;100.00
3206;BME280;1615;53.602;11.418;2023-07-29T01:51:41;100208.09;;;20.32;100.00
3206;BME280;1615;53.602;11.418;2023-07-29T01:54:07;100268.31;;;20.63;100.00
3206;BME280;1615;53.602;11.418;2023-07-29T01:56:32;100048.97;;;19.18;100.00
3206;BME280;1615;53.602;11.418;2023-07-29T01:58:57;100261.28;;;20.46;100.00
3206;BME280;1615;53.602;11.418;2023-07-29T02:01:22;100285.63;;;20.53;100.00
3206;BME280;1615;53.602;11.418;2023-07-29T02:03:48;100289.91;;;20.47;100.00
3206;BME280;1615;53.602;11.418;2023-07-29T02:06:19;100209.44;;;19.97;100.00
3206;BME280;1615;53.602;11.418;2023-07-29T02:08:45;100330.16;;;20.49;100.00
3206;BME280;1615;53.602;11.418;2023-07-29T02:11:10;100288.44;;;20.53;100.00
3206;BME280;1615;53.602;11.418;2023-07-29T02:13:35;100261.59;;;20.41;100.00
3206;BME280;1615;53.602;11.418;2023-07-29T02:16:00;100258.28;;;20.36;100.00
3206;BME280;1615;53.602;11.418;2023-07-29T02:18:26;100284.03;;;20.52;100.00
3206;BME280;1615;53.602;11.418;2023-07-29T02:20:51;100258.16;;;20.29;100.00
3206;BME280;1615;53.602;11.418;2023-07-29T02:23:16;100283.03;;;20.41;100.00
3206;BME280;1615;53.602;11.418;2023-07-29T02:25:44;100282.16;;;20.37;100.00
3206;BME280;1615;53.602;11.418;2023-07-29T02:28:10;100275.19;;;20.24;100.00
3206;BME280;1615;53.602;11.418;2023-07-29T02:30:36;100267.72;;;20.09;100.00
3206;BME280;1615;53.602;11.418;2023-07-29T02:33:02;100285.06;;;20.21;100.00
3206;BME280;1615;53.602;11.418;2023-07-29T02:35:27;100254.38;;;19.99;100.00
3206;BME280;1615;53.602;11.418;2023-07-29T02:37:53;100119.84;;;19.08;100.00
3206;BME280;1615;53.602;11.418;2023-07-29T02:40:18;100188.69;;;19.53;100.00
3206;BME280;1615;53.602;11.418;2023-07-29T02:42:43;100271.06;;;19.99;100.00
3206;BME280;1615;53.602;11.418;2023-07-29T02:45:08;100198.47;;;19.66;100.00
3206;BME280;1615;53.602;11.418;2023-07-29T02:47:37;100256.16;;;20.07;100.00
3206;BME280;1615;53.602;11.418;2023-07-29T02:50:02;100111.44;;;19.24;100.00
3206;BME280;1615;53.602;11.418;2023-07-29T02:52:27;100130.19;;;19.27;100.00
3206;BME280;1615;53.602;11.418;2023-07-29T02:54:53;100255.13;;;19.96;100.00
3206;BME280;1615;53.602;11.418;2023-07-29T02:57:18;100151.38;;;19.35;100.00
3206;BME280;1615;53.602;11.418;2023-07-29T02:59:43;100248.25;;;19.90;100.00
3206;BME280;1615;53.602;11.418;2023-07-29T03:02:08;100246.25;;;19.90;100.00
3206;BME280;1615;53.602;11.418;2023-07-29T03:04:34;100222.88;;;19.72;100.00
3206;BME280;1615;53.602;11.418;2023-07-29T03:06:59;100243.41;;;19.87;100.00
3206;BME280;1615;53.602;11.418;2023-07-29T03:09:25;100054.50;;;18.61;100.00
3206;BME280;1615;53.602;11.418;2023-07-29T03:11:50;100235.00;;;19.83;100.00
3206;BME280;1615;53.602;11.418;2023-07-29T03:14:17;100117.41;;;19.07;100.00
3206;BME280;1615;53.602;11.418;2023-07-29T03:16:43;100248.25;;;19.71;100.00
3206;BME280;1615;53.602;11.418;2023-07-29T03:19:08;100244.88;;;19.62;100.00
3206;BME280;1615;53.602;11.418;2023-07-29T03:21:33;100221.09;;;19.64;100.00
3206;BME280;1615;53.602;11.418;2023-07-29T03:23:59;100216.50;;;19.53;100.00
3206;BME280;1615;53.602;11.418;2023-07-29T03:26:24;100214.03;;;19.48;100.00
3206;BME280;1615;53.602;11.418;2023-07-29T03:28:50;100232.50;;;19.59;100.00
3206;BME280;1615;53.602;11.418;2023-07-29T03:31:15;100221.25;;;19.52;100.00
3206;BME280;1615;53.602;11.418;2023-07-29T03:33:41;100220.00;;;19.50;100.00
3206;BME280;1615;53.602;11.418;2023-07-29T03:36:06;100112.38;;;18.93;100.00
3206;BME280;1615;53.602;11.418;2023-07-29T03:38:31;100238.72;;;19.72;100.00
3206;BME280;1615;53.602;11.418;2023-07-29T03:40:58;100236.41;;;19.74;100.00
3206;BME280;1615;53.602;11.418;2023-07-29T03:43:23;100211.66;;;19.69;100.00
3206;BME280;1615;53.602;11.418;2023-07-29T03:45:48;100230.09;;;19.77;100.00
3206;BME280;1615;53.602;11.418;2023-07-29T03:48:14;100184.75;;;19.54;100.00
3206;BME280;1615;53.602;11.418;2023-07-29T03:50:39;100240.75;;;19.94;100.00
3206;BME280;1615;53.602;11.418;2023-07-29T03:53:05;100211.81;;;19.76;100.00
3206;BME280;1615;53.602;11.418;2023-07-29T03:55:31;100168.59;;;19.40;100.00
3206;BME280;1615;53.602;11.418;2023-07-29T03:57:58;100218.50;;;19.94;100.00
3206;BME280;1615;53.602;11.418;2023-07-29T04:00:23;100125.13;;;19.32;100.00
3206;BME280;1615;53.602;11.418;2023-07-29T04:02:49;100139.38;;;19.50;100.00
3206;BME280;1615;53.602;11.418;2023-07-29T04:05:14;100205.81;;;19.96;100.00
3206;BME280;1615;53.602;11.418;2023-07-29T04:07:40;100207.47;;;19.97;100.00
3206;BME280;1615;53.602;11.418;2023-07-29T04:10:06;100231.53;;;20.09;100.00
3206;BME280;1615;53.602;11.418;2023-07-29T04:12:31;100248.97;;;20.06;100.00
3206;BME280;1615;53.602;11.418;2023-07-29T04:14:57;100226.28;;;19.85;100.00
3206;BME280;1615;53.602;11.418;2023-07-29T04:17:22;100220.44;;;19.90;100.00
3206;BME280;1615;53.602;11.418;2023-07-29T04:19:47;100230.16;;;19.99;100.00
3206;BME280;1615;53.602;11.418;2023-07-29T04:22:13;100247.06;;;20.10;100.00
3206;BME280;1615;53.602;11.418;2023-07-29T04:24:39;100194.50;;;19.86;100.00
3206;BME280;1615;53.602;11.418;2023-07-29T04:27:04;100233.28;;;20.17;100.00
3206;BME280;1615;53.602;11.418;2023-07-29T04:29:30;100205.09;;;19.99;100.00
3206;BME280;1615;53.602;11.418;2023-07-29T04:31:55;100248.94;;;20.25;100.00
3206;BME280;1615;53.602;11.418;2023-07-29T04:34:20;100226.91;;;20.16;100.00
3206;BME280;1615;53.602;11.418;2023-07-29T04:36:46;100245.91;;;20.33;100.00
3206;BME280;1615;53.602;11.418;2023-07-29T04:39:12;100302.69;;;20.48;100.00
3206;BME280;1615;53.602;11.418;2023-07-29T04:41:37;100250.63;;;20.52;100.00
3206;BME280;1615;53.602;11.418;2023-07-29T04:44:02;100222.59;;;20.41;100.00
3206;BME280;1615;53.602;11.418;2023-07-29T04:46:28;100207.53;;;20.46;100.00
3206;BME280;1615;53.602;11.418;2023-07-29T04:48:53;100213.22;;;20.53;100.00
3206;BME280;1615;53.602;11.418;2023-07-29T04:51:18;100228.16;;;20.64;100.00
3206;BME280;1615;53.602;11.418;2023-07-29T04:53:44;100168.34;;;20.32;100.00
3206;BME280;1615;53.602;11.418;2023-07-29T04:56:09;100186.59;;;20.55;100.00
3206;BME280;1615;53.602;11.418;2023-07-29T04:58:35;100212.00;;;20.76;100.00
3206;BME280;1615;53.602;11.418;2023-07-29T05:01:01;100207.34;;;20.84;100.00
3206;BME280;1615;53.602;11.418;2023-07-29T05:03:27;100212.00;;;20.99;100.00
3206;BME280;1615;53.602;11.418;2023-07-29T05:05:52;100211.03;;;21.14;100.00
3206;BME280;1615;53.602;11.418;2023-07-29T05:08:19;100184.78;;;21.18;100.00
3206;BME280;1615;53.602;11.418;2023-07-29T05:10:48;100183.50;;;21.42;100.00
3206;BME280;1615;53.602;11.418;2023-07-29T05:13:14;99939.84;;;19.92;100.00
3206;BME280;1615;53.602;11.418;2023-07-29T05:15:39;100161.97;;;21.39;100.00
3206;BME280;1615;53.602;11.418;2023-07-29T05:18:04;100194.50;;;21.61;100.00
3206;BME280;1615;53.602;11.418;2023-07-29T05:20:30;100203.28;;;21.63;100.00
3206;BME280;1615;53.602;11.418;2023-07-29T05:22:55;100146.47;;;21.41;100.00
3206;BME280;1615;53.602;11.418;2023-07-29T05:25:20;100186.31;;;21.75;100.00
3206;BME280;1615;53.602;11.418;2023-07-29T05:27:45;100170.22;;;21.65;100.00
3206;BME280;1615;53.602;11.418;2023-07-29T05:30:11;100171.09;;;21.69;100.00
3206;BME280;1615;53.602;11.418;2023-07-29T05:32:36;100115.28;;;21.32;100.00
3206;BME280;1615;53.602;11.418;2023-07-29T05:35:01;100170.38;;;21.75;100.00
3206;BME280;1615;53.602;11.418;2023-07-29T05:37:26;100178.44;;;21.84;100.00
3206;BME280;1615;53.602;11.418;2023-07-29T05:39:52;100209.66;;;21.93;100.00
3206;BME280;1615;53.602;11.418;2023-07-29T05:42:17;100106.25;;;21.46;100.00
3206;BME280;1615;53.602;11.418;2023-07-29T05:44:42;100183.34;;;21.94;100.00
3206;BME280;1615;53.602;11.418;2023-07-29T05:47:08;100012.75;;;20.86;100.00
3206;BME280;1615;53.602;11.418;2023-07-29T05:49:33;100138.38;;;21.66;100.00
3206;BME280;1615;53.602;11.418;2023-07-29T05:51:58;100146.56;;;21.85;100.00
3206;BME280;1615;53.602;11.418;2023-07-29T05:54:24;100159.13;;;22.05;100.00
3206;BME280;1615;53.602;11.418;2023-07-29T05:56:49;100197.09;;;22.53;100.00
3206;BME280;1615;53.602;11.418;2023-07-29T05:59:14;100192.78;;;22.66;100.00
3206;BME280;1615;53.602;11.418;2023-07-29T06:01:39;100168.38;;;22.56;100.00
3206;BME280;1615;53.602;11.418;2023-07-29T06:04:05;100191.34;;;22.82;100.00
3206;BME280;1615;53.602;11.418;2023-07-29T06:06:30;100172.81;;;22.64;100.00
3206;BME280;1615;53.602;11.418;2023-07-29T06:08:55;100188.22;;;22.94;100.00
3206;BME280;1615;53.602;11.418;2023-07-29T06:11:21;100185.03;;;22.96;100.00
3206;BME280;1615;53.602;11.418;2023-07-29T06:13:47;100208.97;;;22.90;100.00
3206;BME280;1615;53.602;11.418;2023-07-29T06:16:12;100172.13;;;22.77;100.00
3206;BME280;1615;53.602;11.418;2023-07-29T06:18:37;100113.97;;;22.43;100.00
3206;BME280;1615;53.602;11.418;2023-07-29T06:21:03;100171.31;;;22.77;100.00
3206;BME280;1615;53.602;11.418;2023-07-29T06:23:32;100174.59;;;22.89;100.00
3206;BME280;1615;53.602;11.418;2023-07-29T06:25:58;100119.25;;;22.55;100.00
3206;BME280;1615;53.602;11.418;2023-07-29T06:28:24;100180.25;;;23.00;100.00
3206;BME280;1615;53.602;11.418;2023-07-29T06:30:49;100154.25;;;22.89;100.00
3206;BME280;1615;53.602;11.418;2023-07-29T06:33:14;100162.28;;;23.01;100.00
3206;BME280;1615;53.602;11.418;2023-07-29T06:35:41;100182.31;;;23.10;100.00
3206;BME280;1615;53.602;11.418;2023-07-29T06:38:06;100174.69;;;23.07;100.00
3206;BME280;1615;53.602;11.418;2023-07-29T06:40:31;100149.91;;;23.02;100.00
3206;BME280;1615;53.602;11.418;2023-07-29T06:42:57;100188.38;;;23.19;100.00
3206;BME280;1615;53.602;11.418;2023-07-29T06:45:22;100029.69;;;22.34;100.00
3206;BME280;1615;53.602;11.418;2023-07-29T06:47:47;100057.69;;;22.41;100.00
3206;BME280;1615;53.602;11.418;2023-07-29T06:50:13;100187.69;;;23.36;100.00
3206;BME280;1615;53.602;11.418;2023-07-29T06:52:38;100194.44;;;23.35;100.00
3206;BME280;1615;53.602;11.418;2023-07-29T06:55:05;100029.81;;;22.48;100.00
3206;BME280;1615;53.602;11.418;2023-07-29T06:57:31;100039.84;;;22.56;100.00
3206;BME280;1615;53.602;11.418;2023-07-29T06:59:56;100188.09;;;23.41;100.00
3206;BME280;1615;53.602;11.418;2023-07-29T07:02:21;100163.69;;;23.35;100.00
3206;BME280;1615;53.602;11.418;2023-07-29T07:04:47;100168.97;;;23.54;100.00
3206;BME280;1615;53.602;11.418;2023-07-29T07:07:12;100159.75;;;23.53;100.00
3206;BME280;1615;53.602;11.418;2023-07-29T07:09:37;100181.44;;;23.81;100.00
3206;BME280;1615;53.602;11.418;2023-07-29T07:12:03;100114.97;;;23.46;100.00
3206;BME280;1615;53.602;11.418;2023-07-29T07:14:28;100184.72;;;23.93;100.00
3206;BME280;1615;53.602;11.418;2023-07-29T07:16:53;100173.88;;;23.85;100.00
3206;BME280;1615;53.602;11.418;2023-07-29T07:19:18;100131.00;;;23.60;100.00
3206;BME280;1615;53.602;11.418;2023-07-29T07:21:44;100175.50;;;23.93;100.00
3206;BME280;1615;53.602;11.418;2023-07-29T07:24:09;100153.44;;;23.88;100.00
3206;BME280;1615;53.602;11.418;2023-07-29T07:26:34;100166.31;;;24.03;100.00
3206;BME280;1615;53.602;11.418;2023-07-29T07:29:00;100199.19;;;24.27;100.00
3206;BME280;1615;53.602;11.418;2023-07-29T07:31:25;100160.75;;;24.17;100.00
3206;BME280;1615;53.602;11.418;2023-07-29T07:33:50;100177.16;;;24.50;100.00
3206;BME280;1615;53.602;11.418;2023-07-29T07:36:16;100126.31;;;24.37;100.00
3206;BME280;1615;53.602;11.418;2023-07-29T07:38:41;100164.34;;;24.77;100.00
3206;BME280;1615;53.602;11.418;2023-07-29T07:41:06;100139.13;;;24.70;100.00
3206;BME280;1615;53.602;11.418;2023-07-29T07:43:32;100160.72;;;24.90;100.00
3206;BME280;1615;53.602;11.418;2023-07-29T07:45:58;100133.47;;;24.84;100.00
3206;BME280;1615;53.602;11.418;2023-07-29T07:48:24;100163.94;;;24.96;100.00
3206;BME280;1615;53.602;11.418;2023-07-29T07:50:50;100144.28;;;24.89;100.00
3206;BME280;1615;53.602;11.418;2023-07-29T07:53:15;100165.47;;;25.11;100.00
3206;BME280;1615;53.602;11.418;2023-07-29T07:55:40;99999.81;;;24.25;100.00
3206;BME280;1615;53.602;11.418;2023-07-29T07:58:06;100162.97;;;25.44;100.00
3206;BME280;1615;53.602;11.418;2023-07-29T08:00:31;100110.94;;;25.26;100.00
3206;BME280;1615;53.602;11.418;2023-07-29T08:02:56;100130.94;;;25.38;100.00
3206;BME280;1615;53.602;11.418;2023-07-29T08:05:21;100152.91;;;25.54;100.00
3206;BME280;1615;53.602;11.418;2023-07-29T08:07:47;100149.28;;;25.57;100.00
3206;BME280;1615;53.602;11.418;2023-07-29T08:10:12;100111.69;;;25.37;100.00
3206;BME280;1615;53.602;11.418;2023-07-29T08:12:37;100112.09;;;25.39;100.00
3206;BME280;1615;53.602;11.418;2023-07-29T08:15:03;100157.25;;;25.69;100.00
3206;BME280;1615;53.602;11.418;2023-07-29T08:17:28;100142.03;;;25.63;100.00
3206;BME280;1615;53.602;11.418;2023-07-29T08:19:53;100166.38;;;25.87;100.00
3206;BME280;1615;53.602;11.418;2023-07-29T08:22:19;100021.66;;;24.93;100.00
3206;BME280;1615;53.602;11.418;2023-07-29T08:24:45;100161.56;;;25.84;100.00
3206;BME280;1615;53.602;11.418;2023-07-29T08:27:10;100092.34;;;25.53;100.00
3206;BME280;1615;53.602;11.418;2023-07-29T08:29:36;100049.22;;;25.15;100.00
3206;BME280;1615;53.602;11.418;2023-07-29T08:32:01;99909.34;;;24.31;100.00
3206;BME280;1615;53.602;11.418;2023-07-29T08:34:26;100159.53;;;25.95;100.00
3206;BME280;1615;53.602;11.418;2023-07-29T08:36:52;100148.34;;;25.81;100.00
3206;BME280;1615;53.602;11.418;2023-07-29T08:39:17;100135.47;;;25.83;100.00
3206;BME280;1615;53.602;11.418;2023-07-29T08:41:54;100139.06;;;25.91;100.00
3206;BME280;1615;53.602;11.418;2023-07-29T08:44:22;100077.06;;;25.61;100.00
3206;BME280;1615;53.602;11.418;2023-07-29T08:46:49;100108.19;;;25.84;100.00
3206;BME280;1615;53.602;11.418;2023-07-29T08:49:15;100035.91;;;25.33;100.00
3206;BME280;1615;53.602;11.418;2023-07-29T08:51:44;100151.41;;;26.07;100.00
3206;BME280;1615;53.602;11.418;2023-07-29T08:54:10;100162.22;;;26.12;100.00
3206;BME280;1615;53.602;11.418;2023-07-29T08:56:36;100122.94;;;26.02;100.00
3206;BME280;1615;53.602;11.418;2023-07-29T08:59:03;100110.50;;;25.99;100.00
3206;BME280;1615;53.602;11.418;2023-07-29T09:01:30;100053.31;;;25.69;100.00
3206;BME280;1615;53.602;11.418;2023-07-29T09:03:56;100156.81;;;26.35;100.00
3206;BME280;1615;53.602;11.418;2023-07-29T09:06:21;100041.75;;;25.63;100.00
3206;BME280;1615;53.602;11.418;2023-07-29T09:08:51;100146.25;;;26.50;100.00
3206;BME280;1615;53.602;11.418;2023-07-29T09:11:18;100099.47;;;26.26;100.00
3206;BME280;1615;53.602;11.418;2023-07-29T09:13:44;100146.16;;;26.64;100.00
3206;BME280;1615;53.602;11.418;2023-07-29T09:16:09;100122.25;;;26.38;100.00
3206;BME280;1615;53.602;11.418;2023-07-29T09:18:35;100143.91;;;26.41;100.00
3206;BME280;1615;53.602;11.418;2023-07-29T09:21:01;100139.97;;;26.32;100.00
3206;BME280;1615;53.602;11.418;2023-07-29T09:23:26;100191.66;;;26.45;100.00
3206;BME280;1615;53.602;11.418;2023-07-29T09:26:00;100114.69;;;26.32;100.00
3206;BME280;1615;53.602;11.418;2023-07-29T09:28:26;100119.91;;;26.33;100.00
3206;BME280;1615;53.602;11.418;2023-07-29T09:30:52;100131.00;;;26.51;100.00
3206;BME280;1615;53.602;11.418;2023-07-29T09:33:18;100006.25;;;25.87;100.00
3206;BME280;1615;53.602;11.418;2023-07-29T09:35:44;100063.75;;;26.23;100.00
3206;BME280;1615;53.602;11.418;2023-07-29T09:38:14;100120.84;;;26.64;100.00
3206;BME280;1615;53.602;11.418;2023-07-29T09:40:41;100044.81;;;26.30;100.00
3206;BME280;1615;53.602;11.418;2023-07-29T09:43:08;100109.72;;;26.87;100.00
3206;BME280;1615;53.602;11.418;2023-07-29T09:45:35;100107.69;;;26.91;100.00
3206;BME280;1615;53.602;11.418;2023-07-29T09:48:01;100018.09;;;26.49;100.00
3206;BME280;1615;53.602;11.418;2023-07-29T09:50:28;100105.19;;;27.00;98.29
3206;BME280;1615;53.602;11.418;2023-07-29T09:52:54;100014.53;;;26.45;97.84
3206;BME280;1615;53.602;11.418;2023-07-29T09:55:21;100111.13;;;27.05;100.00
3206;BME280;1615;53.602;11.418;2023-07-29T09:57:53;99985.94;;;26.16;98.33
3206;BME280;1615;53.602;11.418;2023-07-29T10:00:18;100108.06;;;26.93;99.76
3206;BME280;1615;53.602;11.418;2023-07-29T10:02:44;100032.84;;;26.23;100.00
3206;BME280;1615;53.602;11.418;2023-07-29T10:05:10;100090.25;;;26.69;100.00
3206;BME280;1615;53.602;11.418;2023-07-29T10:07:39;100119.41;;;26.86;99.07
3206;BME280;1615;53.602;11.418;2023-07-29T10:10:06;100119.09;;;26.77;100.00
3206;BME280;1615;53.602;11.418;2023-07-29T10:12:33;100031.66;;;26.24;100.00
3206;BME280;1615;53.602;11.418;2023-07-29T10:15:00;100116.50;;;26.93;100.00
3206;BME280;1615;53.602;11.418;2023-07-29T10:17:26;100108.06;;;26.93;98.84
3206;BME280;1615;53.602;11.418;2023-07-29T10:19:53;100005.13;;;26.25;99.27
3206;BME280;1615;53.602;11.418;2023-07-29T10:22:21;100095.88;;;27.03;97.94
3206;BME280;1615;53.602;11.418;2023-07-29T10:24:50;100035.97;;;26.72;97.41
3206;BME280;1615;53.602;11.418;2023-07-29T10:27:18;100100.34;;;27.34;95.81
3206;BME280;1615;53.602;11.418;2023-07-29T10:29:45;100097.78;;;27.46;96.70
3206;BME280;1615;53.602;11.418;2023-07-29T10:32:11;100079.34;;;27.42;95.95
3206;BME280;1615;53.602;11.418;2023-07-29T10:34:37;100061.41;;;27.29;95.19
3206;BME280;1615;53.602;11.418;2023-07-29T10:37:04;100101.56;;;27.33;96.11
3206;BME280;1615;53.602;11.418;2023-07-29T10:39:40;100085.94;;;26.95;96.93
3206;BME280;1615;53.602;11.418;2023-07-29T10:42:06;100098.59;;;26.76;98.38
3206;BME280;1615;53.602;11.418;2023-07-29T10:47:15;100099.16;;;26.17;100.00
3206;BME280;1615;53.602;11.418;2023-07-29T10:49:42;99987.47;;;25.77;100.00
3206;BME280;1615;53.602;11.418;2023-07-29T10:52:07;100064.50;;;26.71;100.00
3206;BME280;1615;53.602;11.418;2023-07-29T10:54:45;99783.06;;;25.17;100.00
3206;BME280;1615;53.602;11.418;2023-07-29T10:57:34;100073.38;;;27.03;98.63
3206;BME280;1615;53.602;11.418;2023-07-29T11:00:01;100027.19;;;26.67;100.00
3206;BME280;1615;53.602;11.418;2023-07-29T11:02:33;100156.66;;;26.53;100.00
3206;BME280;1615;53.602;11.418;2023-07-29T11:05:05;99745.41;;;23.99;100.00
3206;BME280;1615;53.602;11.418;2023-07-29T11:07:30;100054.53;;;25.68;100.00
3206;BME280;1615;53.602;11.418;2023-07-29T11:09:58;100098.31;;;25.62;100.00
3206;BME280;1615;53.602;11.418;2023-07-29T11:12:59;100110.97;;;25.15;100.00
3206;BME280;1615;53.602;11.418;2023-07-29T11:15:26;100119.00;;;25.03;100.00
3206;BME280;1615;53.602;11.418;2023-07-29T11:17:57;100089.44;;;24.70;100.00
3206;BME280;1615;53.602;11.418;2023-07-29T11:20:30;100119.91;;;24.65;100.00
3206;BME280;1615;53.602;11.418;2023-07-29T11:22:57;100116.31;;;24.40;100.00
3206;BME280;1615;53.602;11.418;2023-07-29T11:25:24;100089.88;;;23.99;100.00
3206;BME280;1615;53.602;11.418;2023-07-29T11:27:55;100119.91;;;24.09;100.00
3206;BME280;1615;53.602;11.418;2023-07-29T11:30:21;100116.72;;;24.07;100.00
3206;BME280;1615;53.602;11.418;2023-07-29T11:32:47;100095.09;;;23.97;100.00
3206;BME280;1615;53.602;11.418;2023-07-29T11:35:15;99972.56;;;23.10;100.00
3206;BME280;1615;53.602;11.418;2023-07-29T11:37:43;100103.09;;;23.98;100.00
3206;BME280;1615;53.602;11.418;2023-07-29T11:40:09;100044.63;;;23.48;100.00
3206;BME280;1615;53.602;11.418;2023-07-29T11:42:38;99967.75;;;23.00;100.00
3206;BME280;1615;53.602;11.418;2023-07-29T11:45:05;100108.25;;;23.86;100.00
3206;BME280;1615;53.602;11.418;2023-07-29T11:47:34;100099.03;;;23.75;100.00
3206;BME280;1615;53.602;11.418;2023-07-29T11:50:03;100115.84;;;23.82;100.00
3206;BME280;1615;53.602;11.418;2023-07-29T11:52:29;100024.16;;;23.19;100.00
3206;BME280;1615;53.602;11.418;2023-07-29T11:54:56;100035.38;;;23.30;100.00
3206;BME280;1615;53.602;11.418;2023-07-29T11:57:23;100088.63;;;23.61;100.00
3206;BME280;1615;53.602;11.418;2023-07-29T11:59:49;100111.03;;;23.72;100.00
3206;BME280;1615;53.602;11.418;2023-07-29T12:02:16;100124.22;;;23.71;100.00
3206;BME280;1615;53.602;11.418;2023-07-29T12:04:43;100040.56;;;23.28;100.00
3206;BME280;1615;53.602;11.418;2023-07-29T12:07:10;100024.16;;;23.19;100.00
3206;BME280;1615;53.602;11.418;2023-07-29T12:09:36;100113.03;;;23.71;100.00
3206;BME280;1615;53.602;11.418;2023-07-29T12:12:05;100033.28;;;23.16;100.00
3206;BME280;1615;53.602;11.418;2023-07-29T12:14:31;100123.81;;;23.59;100.00
3206;BME280;1615;53.602;11.418;2023-07-29T12:17:00;100116.22;;;23.70;100.00
3206;BME280;1615;53.602;11.418;2023-07-29T12:19:31;100116.63;;;23.72;100.00
3206;BME280;1615;53.602;11.418;2023-07-29T12:21:57;100097.03;;;23.65;100.00
3206;BME280;1615;53.602;11.418;2023-07-29T12:24:24;100041.00;;;23.40;100.00
3206;BME280;1615;53.602;11.418;2023-07-29T12:26:50;100093.06;;;23.87;100.00
3206;BME280;1615;53.602;11.418;2023-07-29T12:29:17;100116.69;;;24.14;100.00
3206;BME280;1615;53.602;11.418;2023-07-29T12:31:45;100027.06;;;23.79;100.00
3206;BME280;1615;53.602;11.418;2023-07-29T12:34:18;100012.25;;;23.75;100.00
3206;BME280;1615;53.602;11.418;2023-07-29T12:36:49;99995.84;;;23.77;100.00
3206;BME280;1615;53.602;11.418;2023-07-29T12:39:21;100098.28;;;24.48;100.00
3206;BME280;1615;53.602;11.418;2023-07-29T12:41:48;99968.25;;;23.72;100.00
3206;BME280;1615;53.602;11.418;2023-07-29T12:44:14;100139.13;;;24.49;100.00
3206;BME280;1615;53.602;11.418;2023-07-29T12:46:39;100109.06;;;24.53;100.00
3206;BME280;1615;53.602;11.418;2023-07-29T12:49:05;100073.47;;;24.29;100.00